Tonopah, NV

1:58 AM PDT on September 20, 2014 (GMT -0700)
Tonopah | Change Station
CLOSE
Current Station
Airport
Location: Tonopah,
Elevation: 5427 ft
Nearby Weather Stations

Elev 5427 ft 38.05 °N, 117.09 °W | Updated 1 hour ago

Clear
Clear
57 °F
Feels Like 57 °F
N
9
Wind Variable Wind from North

Today
High -- | Low -- °F
--% Chance of Precip.
Yesterday
High -- | Low -- °F
Precip. -- in
6:35 AM 6:48 PM
Waning Crescent, 13% visible
Pressure 29.94 in
Visibility 10.0 miles
Clouds Clear
Dew Point 29 °F
Humidity 34%
Rainfall 0.00 in
Snow Depth Not available.
UV 0 out of 12
Pollen 5.50 out of 12
Air Quality Not available.
Flu Activity Not available.
METAR KTPH 200756Z AUTO 36008KT 10SM CLR 14/M02 A3013 RMK AO2 SLP137 T01391017 402940117

More Conditions Fewer Conditions

Pressure 29.94 in
Visibility 10.0 miles
Clouds Clear
Dew Point 29 °F
Humidity 34%
Rainfall 0.00 in
Snow Depth Not available.
UV 0 out of 12
Pollen 5.50 out of 12
Air Quality Not available.
Flu Activity Not available.
METAR KTPH 200756Z AUTO 36008KT 10SM CLR 14/M02 A3013 RMK AO2 SLP137 T01391017 402940117

More Conditions Fewer Conditions

10-Day Weather Forecast

Almanac

Astronomy

Sep. 20, 2014 Rise Set
Actual Time 6:35 AM PDT 6:48 PM PDT
Civil Twilight 6:08 AM PDT 7:15 PM PDT
Nautical Twilight 5:37 AM PDT 7:45 PM PDT
Astronomical Twilight 5:06 AM PDT 8:17 PM PDT
Moon 3:20 AM PDT 4:52 PM PDT
Length of Visible Light 13h 06m
Length of Day
12h 13m
Tomorrow will be 2m 27s shorter.
Waning Crescent, 13% of the Moon is Illuminated
Today
Waning Crescent
Sep 24
New
Oct 1
First Quarter
Oct 8
Full
Oct 15
Last Quarter

Today's Extremes

State Highs State Lows

Community

WunderPhotos

Upload Photos

1,754,793 photos uploaded!

WunderBlogs® & News

Nearby

Snow Depth

Station Depth Elevation
Laurel Draw 0 in 6700 ft
Pole Creek R.S. 0 in 8330 ft
Fawn Creek 0 in 7000 ft
Granite Peak 1 in 7800 ft
Ward Mountain 0 in 9200 ft

Earthquake Activity

City Distance Mag. Time & Date
Gabbs, Nevada 80 miles 3.3 4:37 AM PDT
2014-09-19
Minimum magnitude displayed is 2.5.

Coastal Water Temperatures

Place Temperature
No Stations Reporting

Nearby Weather Stations